Time;durP1;ratioP1;P1;durP2;ratioP2;P2;SDS_P1;SDS_P2;PMS_P1;PMS_P2;Temp;Humidity;BMP_temperature;BMP_pressure;BME280_temperature;BME280_humidity;BME280_pressure;Samples;Min_cycle;Max_cycle;Signal;HPM_P1;HPM_P2
2022/01/15 00:02:14;;;;;;;29.13;17.23;;;1.10;80.10;;;-0.99;86.35;97320.22;4897682;29;20062;-66
2022/01/15 00:04:40;;;;;;;31.60;18.05;;;1.10;80.90;;;-0.97;86.65;97322.72;4928093;29;20713;-67
2022/01/15 00:07:06;;;;;;;26.42;16.60;;;1.10;81.10;;;-0.99;86.68;97311.66;4943119;28;20050;-65
2022/01/15 00:09:31;;;;;;;30.67;16.75;;;1.10;80.50;;;-0.98;86.59;97323.63;4924504;29;20130;-66
2022/01/15 00:11:58;;;;;;;29.92;17.00;;;1.10;80.90;;;-1.00;86.42;97317.72;4925276;29;20135;-65
2022/01/15 00:14:29;;;;;;;27.35;16.75;;;1.10;80.30;;;-1.01;86.39;97316.06;4945785;28;20047;-66
2022/01/15 00:17:14;;;;;;;;;;;1.10;80.00;;;-1.03;88.55;97313.56;4931353;29;20467;-66
2022/01/15 00:22:20;;;;;;;25.43;15.90;;;1.10;80.00;;;-1.07;86.20;97317.25;4915756;29;20383;-62
2022/01/15 00:24:46;;;;;;;28.27;16.77;;;1.00;80.10;;;-1.09;85.72;97320.84;4922589;29;20295;-64
2022/01/15 00:27:12;;;;;;;24.63;15.52;;;1.00;79.70;;;-1.14;86.13;97317.69;4915295;29;20039;-64
2022/01/15 00:29:37;;;;;;;26.35;15.43;;;1.00;79.60;;;-1.19;86.07;97311.94;4915250;29;20100;-64
2022/01/15 00:32:04;;;;;;;26.60;15.63;;;0.90;79.60;;;-1.20;86.24;97307.69;4894579;29;20040;-64
2022/01/15 00:34:30;;;;;;;26.98;15.95;;;0.90;79.80;;;-1.22;86.11;97315.53;4911041;29;20052;-64
2022/01/15 00:36:56;;;;;;;26.77;16.08;;;0.90;79.60;;;-1.28;86.02;97303.81;4909324;29;20044;-64
2022/01/15 00:39:22;;;;;;;29.48;16.00;;;0.90;79.50;;;-1.29;86.01;97304.72;4908894;29;20091;-64
2022/01/15 00:41:48;;;;;;;27.83;16.88;;;0.80;79.60;;;-1.31;86.19;97322.06;4893156;29;20040;-64
2022/01/15 00:44:14;;;;;;;28.85;17.45;;;0.80;79.40;;;-1.32;85.91;97312.66;4900402;29;20110;-64
2022/01/15 00:46:40;;;;;;;26.52;16.85;;;0.80;79.60;;;-1.36;85.96;97318.91;4909756;29;20410;-64
2022/01/15 00:49:05;;;;;;;25.20;15.90;;;0.80;79.60;;;-1.39;86.17;97313.88;4917032;29;20032;-64
2022/01/15 00:51:31;;;;;;;28.00;16.67;;;0.80;79.60;;;-1.38;85.79;97309.56;4911096;29;20048;-64
2022/01/15 00:53:57;;;;;;;28.50;15.75;;;0.70;79.40;;;-1.39;85.81;97318.22;4900743;29;20448;-64
2022/01/15 00:56:22;;;;;;;26.40;15.90;;;0.70;79.50;;;-1.43;86.06;97312.41;4917655;29;20099;-64
2022/01/15 00:58:48;;;;;;;28.17;15.45;;;0.70;79.30;;;-1.48;85.93;97309.25;4918844;29;20413;-64
2022/01/15 01:01:14;;;;;;;22.60;14.73;;;0.60;79.30;;;-1.51;85.97;97309.44;4899575;28;20032;-64
2022/01/15 01:03:40;;;;;;;23.63;15.35;;;0.60;79.40;;;-1.53;86.06;97308.69;4925308;29;20047;-64
2022/01/15 01:06:05;;;;;;;20.13;13.52;;;0.60;79.30;;;-1.53;85.92;97313.84;4909009;29;20511;-64
2022/01/15 01:08:31;;;;;;;22.80;14.15;;;0.60;79.30;;;-1.56;85.80;97307.13;4897475;29;20406;-64
2022/01/15 01:10:59;;;;;;;22.70;14.38;;;0.60;79.20;;;-1.58;85.86;97314.09;4903444;29;20469;-64
2022/01/15 01:24:21;;;;;;;23.73;14.77;;;0.50;79.30;;;-1.64;85.81;97292.94;4920137;29;20044;-65
2022/01/15 01:26:56;;;;;;;21.73;14.27;;;0.40;79.40;;;-1.67;85.36;97296.53;4894645;29;20119;-64
2022/01/15 01:29:35;;;;;;;28.45;14.82;;;0.40;79.10;;;-1.68;85.58;97294.03;4912395;29;20032;-65
2022/01/15 01:32:10;;;;;;;27.60;14.57;;;0.40;79.20;;;-1.74;85.19;97291.81;4901529;29;20036;-64
2022/01/15 01:34:39;;;;;;;23.90;14.77;;;0.40;78.90;;;-1.77;85.54;97289.41;4895664;29;20036;-66
2022/01/15 01:39:53;;;;;;;23.42;14.20;;;0.30;79.30;;;-1.80;85.60;97287.81;4904943;28;20039;-65
2022/01/15 01:45:13;;;;;;;28.75;15.35;;;0.30;78.90;;;-1.82;86.78;97283.63;4908057;29;20039;-64
2022/01/15 01:47:41;;;;;;;30.83;16.58;;;0.20;79.20;;;-1.86;85.38;97278.66;4909394;29;20029;-64
2022/01/15 01:50:08;;;;;;;24.25;15.32;;;0.20;79.40;;;-1.87;85.42;97277.00;4898905;29;20028;-64
2022/01/15 01:52:33;;;;;;;25.13;15.15;;;0.20;79.10;;;-1.88;85.50;97280.47;4915702;29;20052;-65
2022/01/15 01:54:59;;;;;;;27.15;15.77;;;0.20;79.20;;;-1.92;85.33;97279.00;4915713;29;20048;-63
2022/01/15 01:57:25;;;;;;;28.83;16.92;;;0.10;79.10;;;-1.94;85.40;97267.09;4907848;29;20092;-63
2022/01/15 01:59:50;;;;;;;30.27;16.85;;;0.20;79.40;;;-1.97;85.34;97265.53;4900716;29;20514;-63
2022/01/15 02:02:16;;;;;;;28.33;16.50;;;0.10;78.90;;;-1.99;85.49;97271.69;4895194;29;20036;-63
2022/01/15 02:04:42;;;;;;;28.95;16.80;;;0.10;78.70;;;-2.02;85.20;97262.38;4879258;29;20045;-62
2022/01/15 02:07:08;;;;;;;30.65;17.75;;;0.10;79.10;;;-2.03;85.58;97255.56;4913745;29;20040;-63
2022/01/15 02:09:34;;;;;;;28.98;17.73;;;0.10;79.20;;;-2.07;85.82;97259.19;4915857;28;20036;-63
2022/01/15 02:11:59;;;;;;;28.00;18.48;;;0.10;79.30;;;-2.06;85.55;97249.72;4893007;29;20040;-63
2022/01/15 02:14:29;;;;;;;27.63;16.77;;;0.10;79.40;;;-2.10;85.85;97243.88;4910138;29;20099;-62
2022/01/15 02:16:56;;;;;;;31.73;17.83;;;0.00;79.40;;;-2.10;85.62;97241.31;4879118;29;20461;-63
2022/01/15 02:19:22;;;;;;;31.25;17.23;;;0.00;79.10;;;-2.10;85.20;97237.91;4883336;28;20091;-63
2022/01/15 02:24:16;;;;;;;26.17;16.63;;;0.00;79.00;;;-2.17;85.16;97242.56;4912860;29;20028;-63
2022/01/15 02:26:42;;;;;;;31.15;17.50;;;0.00;78.90;;;-2.18;85.51;97240.91;4912641;29;20429;-63
2022/01/15 02:29:08;;;;;;;25.88;16.92;;;0.00;78.80;;;-2.22;85.35;97242.00;4896518;29;20045;-62
2022/01/15 02:31:34;;;;;;;31.75;17.40;;;0.00;78.80;;;-2.23;85.67;97238.59;4903604;29;20091;-64
2022/01/15 02:34:01;;;;;;;32.22;19.10;;;0.00;79.10;;;-2.26;85.79;97227.63;4869743;29;20047;-63
2022/01/15 02:36:32;;;;;;;29.92;18.13;;;0.00;79.40;;;-2.26;86.73;97232.75;4912371;29;20103;-63
2022/01/15 02:38:58;;;;;;;34.13;20.35;;;0.00;79.70;;;-2.25;86.29;97234.44;4896157;29;20043;-63
2022/01/15 02:41:27;;;;;;;32.53;19.67;;;0.00;79.80;;;-2.26;86.38;97225.88;4913934;29;20036;-63
2022/01/15 02:43:53;;;;;;;37.70;19.77;;;0.00;79.80;;;-2.26;86.46;97230.19;4913393;29;20175;-63
2022/01/15 02:46:21;;;;;;;31.77;19.75;;;0.00;79.80;;;-2.32;86.66;97220.19;4908597;29;20089;-63
2022/01/15 02:48:53;;;;;;;31.40;19.92;;;0.00;80.00;;;-2.26;87.53;97225.03;4906230;29;20041;-63
2022/01/15 02:51:24;;;;;;;31.27;19.70;;;0.00;80.30;;;-2.27;87.65;97218.19;4915893;28;20050;-63
2022/01/15 02:53:54;;;;;;;31.20;19.00;;;0.00;80.30;;;-2.28;86.85;97208.78;4914769;29;20036;-63
2022/01/15 02:56:34;;;;;;;40.45;20.48;;;0.00;80.30;;;-2.27;87.04;97219.03;4894499;29;20570;-63
2022/01/15 02:59:02;;;;;;;30.80;19.55;;;0.00;79.90;;;-2.30;87.08;97205.47;4908153;29;20111;-63
2022/01/15 03:01:28;;;;;;;32.58;18.52;;;0.00;80.20;;;-2.30;87.05;97197.75;4910759;29;20135;-63
2022/01/15 03:03:54;;;;;;;31.10;18.80;;;0.00;80.10;;;-2.32;87.14;97194.41;4913548;29;20036;-63
2022/01/15 03:06:20;;;;;;;27.85;19.00;;;0.00;80.10;;;-2.28;86.93;97198.50;4919384;29;20043;-63
2022/01/15 03:08:46;;;;;;;32.65;18.65;;;0.00;80.00;;;-2.32;87.12;97186.69;4909563;29;20100;-63
2022/01/15 03:11:12;;;;;;;34.67;19.38;;;0.00;80.10;;;-2.31;87.08;97193.50;4905518;29;20094;-64
2022/01/15 03:13:38;;;;;;;29.05;19.27;;;-3276.70;80.20;;;-2.29;86.96;97181.38;4908921;29;20449;-63
2022/01/15 03:16:06;;;;;;;30.13;18.50;;;0.00;80.00;;;-2.30;86.69;97177.13;4892990;29;20127;-63
2022/01/15 03:18:32;;;;;;;31.08;19.15;;;0.00;79.70;;;-2.33;86.52;97179.88;4893702;29;20028;-64
2022/01/15 03:20:57;;;;;;;29.13;18.08;;;-3276.70;79.70;;;-2.32;86.11;97178.97;4922483;29;20500;-63
2022/01/15 03:23:23;;;;;;;28.95;18.02;;;-3276.70;79.20;;;-2.32;86.27;97178.97;4917391;29;20155;-64
2022/01/15 03:25:49;;;;;;;31.35;18.58;;;-3276.70;79.20;;;-2.37;86.06;97168.06;4895108;29;20112;-64
2022/01/15 03:28:15;;;;;;;29.20;18.00;;;-3276.70;79.60;;;-2.39;85.96;97168.16;4899961;29;20084;-63
2022/01/15 03:30:40;;;;;;;28.42;18.17;;;-3276.60;78.90;;;-2.42;85.81;97172.66;4898052;29;20040;-63
2022/01/15 03:33:06;;;;;;;27.58;18.20;;;-3276.50;78.90;;;-2.49;85.88;97167.84;4916901;28;20079;-63
2022/01/15 03:35:33;;;;;;;28.80;18.58;;;-3276.50;79.10;;;-2.50;86.01;97168.72;4893497;29;20038;-63
2022/01/15 03:37:59;;;;;;;30.65;17.63;;;-3276.50;79.30;;;-2.52;86.31;97165.41;4908841;29;20036;-63
2022/01/15 03:40:25;;;;;;;28.67;18.60;;;-3276.50;79.10;;;-2.53;86.28;97165.50;4915252;29;20095;-63
2022/01/15 03:42:50;;;;;;;28.00;17.30;;;-3276.50;79.00;;;-2.54;86.04;97167.22;4913005;29;20059;-63
2022/01/15 03:45:16;;;;;;;28.23;17.52;;;-3276.50;79.00;;;-2.55;85.92;97165.56;4896835;28;20107;-63
2022/01/15 03:47:43;;;;;;;28.75;17.60;;;-3276.50;78.80;;;-2.59;85.62;97158.94;4894444;29;20135;-63
2022/01/15 03:50:10;;;;;;;27.80;17.52;;;-3276.50;78.60;;;-2.61;85.61;97168.47;4908722;29;20157;-64
2022/01/15 03:52:35;;;;;;;28.13;17.83;;;-3276.40;78.40;;;-2.62;85.75;97168.56;4895588;29;20075;-64
2022/01/15 03:55:02;;;;;;;28.77;17.02;;;-3276.40;78.60;;;-2.65;85.40;97164.41;4915074;29;20121;-63
2022/01/15 03:57:28;;;;;;;30.52;18.65;;;-3276.30;78.40;;;-2.70;85.50;97161.25;4897344;28;20039;-64
2022/01/15 03:59:54;;;;;;;30.48;17.95;;;-3276.30;78.60;;;-2.70;85.70;97168.97;4899731;29;20141;-63
2022/01/15 04:02:20;;;;;;;31.65;17.80;;;-3276.30;78.50;;;-2.74;85.59;97171.78;4911249;29;20051;-63
2022/01/15 04:04:45;;;;;;;30.75;18.42;;;-3276.30;78.60;;;-2.76;85.96;97171.88;4910039;29;20059;-63
2022/01/15 04:07:12;;;;;;;30.60;17.70;;;-3276.30;78.50;;;-2.79;85.69;97161.72;4898543;29;20064;-63
2022/01/15 04:09:37;;;;;;;29.23;17.25;;;-3276.20;78.40;;;-2.81;85.71;97164.38;4898212;29;20389;-64
2022/01/15 04:12:03;;;;;;;29.35;17.35;;;-3276.30;78.50;;;-2.80;85.44;97172.94;4911646;29;20066;-63
2022/01/15 04:14:29;;;;;;;29.73;18.10;;;-3276.30;78.50;;;-2.84;85.57;97171.44;4911913;29;20128;-64
2022/01/15 04:16:55;;;;;;;29.65;17.73;;;-3276.20;78.50;;;-2.86;85.64;97170.69;4913070;29;20457;-63
2022/01/15 04:19:21;;;;;;;29.58;17.17;;;-3276.20;78.70;;;-2.87;85.68;97169.03;4911477;29;20576;-64
2022/01/15 04:21:46;;;;;;;24.60;16.13;;;-3276.20;78.50;;;-2.85;85.63;97182.66;4916064;29;20187;-63
2022/01/15 04:24:12;;;;;;;28.35;17.17;;;-3276.20;78.60;;;-2.90;86.07;97179.50;4915376;29;20056;-64
2022/01/15 04:26:38;;;;;;;28.17;16.92;;;-3276.20;78.80;;;-2.87;86.31;97181.91;4882706;29;20071;-64
2022/01/15 04:29:06;;;;;;;27.40;17.73;;;-3276.20;79.30;;;-2.88;86.26;97182.81;4897515;29;20516;-63
2022/01/15 04:31:47;;;;;;;27.80;18.02;;;-3276.20;79.90;;;-2.89;87.01;97186.31;4910542;29;20036;-67
2022/01/15 04:34:17;;;;;;;;;;;-3276.20;80.50;;;-2.88;89.52;97187.97;4919854;29;20666;-67
2022/01/15 04:36:43;;;;;;;29.00;16.48;;;-3276.30;80.70;;;-2.84;87.14;97179.16;4899795;29;19930;-66
2022/01/15 04:39:10;;;;;;;31.27;16.38;;;-3276.20;80.70;;;-2.84;87.39;97184.31;4913420;29;20036;-66
2022/01/15 04:41:36;;;;;;;24.95;16.30;;;-3276.20;81.00;;;-2.83;87.67;97188.56;4897920;29;20039;-66
2022/01/15 04:44:04;;;;;;;33.03;17.73;;;-3276.30;81.10;;;-2.82;87.82;97177.34;4914822;29;20115;-66
2022/01/15 04:46:29;;;;;;;28.80;16.85;;;-3276.30;81.10;;;-2.82;87.92;97182.50;4913422;29;20036;-69
2022/01/15 04:48:56;;;;;;;27.38;16.80;;;-3276.30;81.10;;;-2.81;87.77;97189.31;4915416;29;20197;-67
2022/01/15 04:51:22;;;;;;;27.30;16.98;;;-3276.30;81.00;;;-2.80;87.86;97185.81;4918140;28;20584;-66
2022/01/15 04:53:47;;;;;;;27.90;16.85;;;-3276.30;80.90;;;-2.79;87.83;97187.47;4924310;29;20166;-66
2022/01/15 04:56:13;;;;;;;31.55;16.85;;;-3276.30;80.90;;;-2.76;88.51;97192.47;4920805;29;20072;-66
2022/01/15 04:58:39;;;;;;;36.22;18.95;;;-3276.30;81.30;;;-2.75;88.39;97191.56;4898438;29;20032;-67
2022/01/15 05:01:05;;;;;;;32.72;18.75;;;-3276.40;81.70;;;-2.69;88.93;97185.28;4894303;29;20128;-66
2022/01/15 05:03:32;;;;;;;35.85;19.15;;;-3276.50;81.90;;;-2.66;90.07;97188.50;4900295;29;20067;-66
2022/01/15 05:05:58;;;;;;;42.30;19.60;;;-3276.50;82.80;;;-2.64;90.01;97186.69;4882576;29;20062;-66
2022/01/15 05:08:23;;;;;;;41.10;19.83;;;-3276.50;83.30;;;-2.59;90.70;97189.00;4897392;29;20032;-66
2022/01/15 05:10:49;;;;;;;43.53;20.05;;;-3276.60;83.70;;;-2.56;91.17;97181.94;4909222;29;20100;-66
2022/01/15 05:13:16;;;;;;;53.13;21.83;;;-3276.50;84.00;;;-2.51;91.28;97189.41;4912629;29;20482;-67
2022/01/15 05:15:43;;;;;;;59.45;22.55;;;-3276.50;84.40;;;-2.51;91.71;97192.00;4915129;29;20036;-66
2022/01/15 05:18:09;;;;;;;49.80;22.55;;;-3276.60;84.70;;;-2.51;92.27;97185.09;4912514;29;20028;-66
2022/01/15 05:20:36;;;;;;;59.47;23.10;;;-3276.60;85.00;;;-2.47;92.48;97184.03;4918375;29;20035;-66
2022/01/15 05:23:02;;;;;;;73.95;24.98;;;-3276.60;85.20;;;-2.44;93.00;97182.22;4897802;29;20035;-66
2022/01/15 05:25:28;;;;;;;64.07;25.08;;;-3276.70;85.40;;;-2.39;93.17;97186.19;4894364;29;20084;-66
2022/01/15 05:27:53;;;;;;;48.95;24.13;;;-3276.70;85.60;;;-2.37;93.59;97181.78;4912630;29;20048;-66
2022/01/15 05:30:19;;;;;;;69.00;27.90;;;0.00;85.70;;;-2.32;93.80;97182.38;4896501;29;20111;-67
2022/01/15 05:32:45;;;;;;;65.30;26.90;;;0.00;85.60;;;-2.27;94.20;97176.97;4897457;29;20042;-63
2022/01/15 05:35:11;;;;;;;71.63;22.45;;;0.00;85.80;;;-2.26;94.44;97170.91;4912994;29;20079;-63
2022/01/15 05:37:37;;;;;;;59.92;20.88;;;0.10;86.10;;;-2.19;95.15;97187.69;4896394;29;20073;-63
2022/01/15 05:40:04;;;;;;;61.30;19.58;;;0.10;86.20;;;-2.14;95.54;97182.28;4895620;29;20143;-63
2022/01/15 05:42:30;;;;;;;48.47;19.45;;;0.10;86.50;;;-2.08;95.70;97194.81;4894777;29;20044;-62
2022/01/15 05:44:55;;;;;;;72.22;18.17;;;0.20;86.70;;;-2.03;95.63;97183.38;4894362;29;20036;-63
2022/01/15 05:47:21;;;;;;;66.47;16.23;;;0.30;86.40;;;-2.00;95.86;97188.34;4893863;29;20093;-62
2022/01/15 05:49:47;;;;;;;67.07;16.60;;;0.40;86.50;;;-1.94;96.08;97185.41;4905781;29;20427;-63
2022/01/15 05:52:13;;;;;;;61.83;16.42;;;0.40;86.70;;;-1.90;96.65;97184.34;4914235;29;20536;-62
2022/01/15 05:54:38;;;;;;;61.08;16.83;;;0.40;86.90;;;-1.88;97.01;97179.91;4912809;29;20055;-62
2022/01/15 05:57:04;;;;;;;78.60;17.10;;;0.40;87.00;;;-1.81;96.98;97179.56;4912922;29;20211;-63
2022/01/15 05:59:30;;;;;;;56.78;17.98;;;0.50;87.10;;;-1.75;97.27;97192.13;4913768;29;20092;-62
2022/01/15 06:01:56;;;;;;;82.57;22.38;;;0.60;86.90;;;-1.71;97.64;97188.47;4909893;29;20536;-63
2022/01/15 06:04:21;;;;;;;73.88;19.60;;;0.60;86.90;;;-1.67;97.57;97179.63;4896902;29;20047;-63
2022/01/15 06:06:47;;;;;;;69.65;17.05;;;0.60;87.00;;;-1.64;97.89;97190.59;4912967;29;20040;-63
2022/01/15 06:09:13;;;;;;;62.47;17.15;;;0.60;87.10;;;-1.61;97.84;97187.00;4909062;29;20547;-62
2022/01/15 06:11:40;;;;;;;76.25;19.48;;;0.60;87.00;;;-1.59;97.71;97192.91;4911604;29;20053;-63
2022/01/15 06:14:05;;;;;;;71.28;20.42;;;0.60;86.80;;;-1.59;97.90;97187.75;4897643;29;20504;-61
2022/01/15 06:16:32;;;;;;;49.53;14.32;;;0.60;87.00;;;-1.56;97.91;97188.44;4928450;29;20067;-62
2022/01/15 06:18:58;;;;;;;54.30;13.30;;;0.70;86.90;;;-1.51;98.06;97195.06;4908782;29;20077;-62
2022/01/15 06:21:23;;;;;;;56.95;12.52;;;0.70;86.80;;;-1.50;97.96;97191.56;4908639;29;20049;-63
2022/01/15 06:23:49;;;;;;;55.60;12.50;;;0.70;87.00;;;-1.48;97.86;97185.41;4895284;29;20080;-63
2022/01/15 06:26:15;;;;;;;35.17;11.95;;;0.70;87.00;;;-1.43;98.10;97177.38;4893435;29;20104;-63
2022/01/15 06:28:41;;;;;;;42.25;10.98;;;0.80;86.90;;;-1.43;98.09;97180.78;4911016;29;20036;-63
2022/01/15 06:31:06;;;;;;;56.92;11.07;;;0.90;86.80;;;-1.37;98.30;97182.19;4896810;29;20407;-63
2022/01/15 06:33:32;;;;;;;66.43;21.88;;;0.90;86.80;;;-1.36;98.35;97182.13;4912348;29;20036;-62
2022/01/15 06:35:58;;;;;;;52.60;17.88;;;0.90;86.90;;;-1.35;98.55;97183.78;4912161;29;20424;-64
2022/01/15 06:38:24;;;;;;;65.07;11.95;;;0.90;86.90;;;-1.32;98.49;97188.75;4912298;29;20198;-62
2022/01/15 06:40:50;;;;;;;41.28;11.90;;;0.90;86.80;;;-1.31;98.51;97190.44;4912164;29;20036;-63
2022/01/15 06:43:15;;;;;;;49.67;11.98;;;0.90;87.20;;;-1.27;98.64;97186.75;4911654;29;20025;-63
2022/01/15 06:45:41;;;;;;;50.92;11.48;;;0.90;87.00;;;-1.25;98.91;97189.22;4896661;29;20036;-62
2022/01/15 06:48:07;;;;;;;60.50;11.88;;;1.00;87.10;;;-1.22;99.25;97186.47;4912127;29;20028;-64
2022/01/15 06:50:33;;;;;;;33.00;11.50;;;1.00;87.20;;;-1.18;99.30;97187.94;4908673;29;20127;-62
2022/01/15 06:52:59;;;;;;;46.83;11.43;;;1.10;87.10;;;-1.15;99.05;97192.09;4913180;29;20095;-62
2022/01/15 06:55:24;;;;;;;53.65;11.07;;;1.10;87.00;;;-1.13;99.32;97191.09;4912531;29;20569;-62
2022/01/15 06:57:50;;;;;;;36.47;11.23;;;1.10;87.00;;;-1.10;99.49;97187.50;4913560;29;20134;-62
2022/01/15 07:00:16;;;;;;;47.45;12.23;;;1.20;87.10;;;-1.06;99.57;97197.56;4911896;29;20446;-62
2022/01/15 07:02:42;;;;;;;65.63;11.57;;;1.20;87.30;;;-1.01;100.00;97194.69;4892978;29;20040;-62
2022/01/15 07:05:08;;;;;;;48.38;12.50;;;1.30;87.10;;;-0.99;99.80;97187.69;4924799;29;20373;-63
2022/01/15 07:07:35;;;;;;;54.25;19.20;;;1.30;86.90;;;-0.94;99.93;97190.81;4911805;29;20453;-62
2022/01/15 07:10:01;;;;;;;59.15;15.05;;;1.40;86.80;;;-0.91;99.76;97195.81;4911992;29;20453;-63
2022/01/15 07:12:26;;;;;;;57.72;14.25;;;1.50;86.50;;;-0.87;99.39;97192.13;4912084;29;20035;-63
2022/01/15 07:14:52;;;;;;;55.92;14.35;;;1.50;86.40;;;-0.85;99.40;97195.47;4911389;29;20123;-62
2022/01/15 07:17:18;;;;;;;50.95;13.75;;;1.50;86.40;;;-0.81;99.70;97191.75;4912623;29;20079;-63
2022/01/15 07:19:44;;;;;;;43.40;15.23;;;1.60;86.20;;;-0.79;99.43;97189.91;4913338;29;20035;-63
2022/01/15 07:22:09;;;;;;;47.60;15.10;;;1.60;86.10;;;-0.78;99.37;97186.41;4911646;29;20564;-63
2022/01/15 07:24:35;;;;;;;90.65;36.78;;;1.60;86.00;;;-0.73;99.74;97189.53;4908144;29;20480;-63
2022/01/15 07:27:01;;;;;;;83.20;24.20;;;1.70;86.00;;;-0.71;99.41;97187.69;4894339;29;20032;-63
2022/01/15 07:29:29;;;;;;;50.63;18.33;;;1.60;86.00;;;-0.68;99.40;97191.84;4892758;29;20551;-63
2022/01/15 07:31:55;;;;;;;46.63;16.40;;;1.70;86.00;;;-0.65;99.42;97187.34;4893291;29;20127;-63
2022/01/15 07:34:21;;;;;;;56.22;15.70;;;1.80;85.90;;;-0.60;99.99;97183.63;4902999;29;20580;-63
2022/01/15 07:36:51;;;;;;;44.08;15.00;;;1.80;85.90;;;-0.57;99.65;97188.63;4927373;29;20060;-62
2022/01/15 07:39:17;;;;;;;39.50;14.35;;;1.80;85.80;;;-0.53;99.50;97190.09;4910704;29;20040;-63
2022/01/15 07:41:43;;;;;;;37.85;13.25;;;1.90;85.80;;;-0.48;99.43;97188.03;4886040;29;20124;-64
2022/01/15 07:44:09;;;;;;;55.47;12.65;;;1.90;85.80;;;-0.44;99.51;97192.13;4904595;29;20036;-64
2022/01/15 07:46:35;;;;;;;41.50;11.10;;;2.00;85.90;;;-0.42;99.58;97182.53;4911692;29;20055;-64
2022/01/15 07:49:01;;;;;;;34.55;11.27;;;1.90;85.90;;;-0.40;100.00;97185.84;4912313;29;20040;-63
2022/01/15 07:51:27;;;;;;;32.17;10.75;;;2.00;86.10;;;-0.34;100.00;97193.19;4914888;29;20480;-63
2022/01/15 07:53:53;;;;;;;39.25;11.15;;;2.10;86.00;;;-0.31;100.00;97174.91;4922024;29;20056;-64
2022/01/15 07:56:18;;;;;;;40.45;11.07;;;2.10;85.70;;;-0.27;99.88;97176.38;4891433;29;20045;-63
2022/01/15 07:58:44;;;;;;;30.48;10.25;;;2.10;85.60;;;-0.26;99.99;97180.63;4911056;29;20071;-66
2022/01/15 08:01:10;;;;;;;32.47;9.93;;;2.10;85.80;;;-0.20;99.59;97182.84;4912704;29;20222;-66
2022/01/15 08:03:36;;;;;;;30.98;11.20;;;2.20;85.60;;;-0.17;100.00;97177.47;4896103;29;20163;-64
2022/01/15 08:06:01;;;;;;;34.65;9.88;;;2.30;85.70;;;-0.12;99.86;97178.00;4914031;29;20046;-64
2022/01/15 08:08:27;;;;;;;35.35;10.85;;;2.30;85.30;;;-0.10;99.58;97180.50;4914636;29;20068;-65
2022/01/15 08:10:53;;;;;;;36.03;10.40;;;2.30;85.30;;;-0.08;100.00;97181.22;4915679;29;20066;-66
2022/01/15 08:13:19;;;;;;;35.67;11.30;;;2.30;85.20;;;-0.04;99.44;97172.34;4908813;29;20516;-66
2022/01/15 08:15:44;;;;;;;30.67;10.50;;;2.30;85.30;;;-0.05;99.85;97168.94;4915414;29;20039;-66
2022/01/15 08:18:10;;;;;;;37.70;11.40;;;2.30;85.00;;;-0.04;99.37;97162.81;4914637;29;20508;-68
2022/01/15 08:20:36;;;;;;;33.60;11.52;;;2.30;84.90;;;-0.02;99.42;97168.72;4914588;29;20138;-68
2022/01/15 08:23:02;;;;;;;29.85;11.25;;;2.30;85.00;;;0.02;99.08;97163.38;4897139;29;20079;-68
2022/01/15 08:25:28;;;;;;;47.08;11.23;;;2.40;84.80;;;0.03;99.24;97157.28;4914037;29;20046;-68
2022/01/15 08:27:53;;;;;;;34.55;11.93;;;2.40;84.70;;;0.06;99.17;97149.31;4915827;29;20043;-68
2022/01/15 08:30:20;;;;;;;29.33;11.77;;;2.40;84.60;;;0.06;98.82;97157.91;4900292;29;20068;-68
2022/01/15 08:32:46;;;;;;;29.08;11.65;;;2.40;84.70;;;0.11;99.08;97144.69;4899560;29;20035;-68
2022/01/15 08:35:12;;;;;;;44.72;11.38;;;2.50;84.70;;;0.14;98.94;97144.47;4913930;29;20036;-67
2022/01/15 08:37:38;;;;;;;28.00;11.18;;;2.60;84.50;;;0.17;99.25;97146.84;4882702;29;20099;-65
2022/01/15 08:40:09;;;;;;;29.13;11.60;;;2.60;84.30;;;0.21;99.08;97150.91;4914221;29;20111;-67
2022/01/15 08:42:35;;;;;;;28.00;11.68;;;2.60;84.40;;;0.25;98.73;97152.38;4914580;29;20032;-67
2022/01/15 08:45:02;;;;;;;34.92;11.23;;;2.70;84.30;;;0.29;98.55;97146.91;4898374;29;20123;-67
2022/01/15 08:47:27;;;;;;;31.20;11.57;;;2.70;84.30;;;0.34;98.58;97141.44;4914829;29;20127;-66
2022/01/15 08:49:54;;;;;;;30.77;11.63;;;2.80;84.10;;;0.39;98.79;97151.47;4914190;29;20090;-68
2022/01/15 08:52:19;;;;;;;26.48;11.63;;;2.90;83.60;;;0.38;98.42;97142.06;4895291;29;20085;-66
2022/01/15 08:54:45;;;;;;;41.03;11.52;;;2.90;83.40;;;0.42;98.75;97154.69;4903550;29;20115;-67
2022/01/15 08:57:11;;;;;;;34.63;12.45;;;2.90;83.20;;;0.44;98.24;97145.06;4913094;29;20064;-68
2022/01/15 08:59:37;;;;;;;30.25;13.32;;;2.80;83.30;;;0.44;97.54;97137.28;4913870;29;20052;-67
2022/01/15 09:02:03;;;;;;;56.05;27.50;;;2.80;83.20;;;0.47;97.59;97142.28;4913770;29;20068;-65
2022/01/15 09:04:29;;;;;;;44.25;20.67;;;2.90;83.70;;;0.50;98.32;97136.91;4894936;29;20028;-65
2022/01/15 09:06:54;;;;;;;37.13;15.02;;;3.00;83.50;;;0.54;97.82;97132.34;4929796;29;20497;-66
2022/01/15 09:09:20;;;;;;;39.55;13.45;;;3.10;83.30;;;0.58;97.46;97142.41;4921108;29;20485;-67
2022/01/15 09:11:46;;;;;;;31.10;13.40;;;3.00;82.80;;;0.58;97.63;97139.81;4902214;29;20468;-66
2022/01/15 09:14:12;;;;;;;42.58;21.00;;;3.00;82.90;;;0.61;97.19;97139.59;4901630;29;20055;-65
2022/01/15 09:16:38;;;;;;;31.80;17.13;;;3.10;82.90;;;0.64;97.44;97140.31;4909891;29;20036;-67
2022/01/15 09:19:04;;;;;;;32.30;14.73;;;3.10;82.50;;;0.67;96.93;97137.53;4879480;29;20115;-65
2022/01/15 09:21:30;;;;;;;42.17;14.32;;;3.10;82.30;;;0.66;97.50;97135.88;4899742;29;20458;-67
2022/01/15 09:23:55;;;;;;;41.17;13.90;;;3.00;82.10;;;0.65;96.80;97129.03;4927820;29;20036;-68
2022/01/15 09:26:34;;;;;;;29.27;13.90;;;3.00;82.30;;;0.64;96.58;97133.38;4913045;29;20432;-66
2022/01/15 09:31:44;;;;;;;24.45;13.48;;;3.10;82.20;;;0.65;96.58;97126.44;4914402;29;20047;-66
2022/01/15 09:34:10;;;;;;;27.88;13.00;;;3.10;82.20;;;0.63;96.14;97125.72;4913556;29;20032;-65
2022/01/15 09:36:35;;;;;;;30.58;15.07;;;3.10;82.20;;;0.71;96.23;97128.66;4898003;29;20047;-67
2022/01/15 09:39:01;;;;;;;28.20;13.52;;;3.10;82.00;;;0.73;96.53;97134.56;4899552;29;20060;-67
2022/01/15 09:41:27;;;;;;;27.27;14.27;;;3.10;82.00;;;0.73;96.37;97127.63;4926855;28;20043;-68
2022/01/15 09:43:53;;;;;;;36.63;15.35;;;3.20;82.00;;;0.75;96.47;97127.50;4916999;29;20064;-67
2022/01/15 09:46:19;;;;;;;29.80;14.75;;;3.20;82.00;;;0.77;96.16;97125.63;4916766;29;20063;-66
2022/01/15 09:48:44;;;;;;;30.27;15.10;;;3.20;82.00;;;0.80;96.29;97130.59;4899481;29;20064;-67
2022/01/15 09:51:10;;;;;;;31.98;15.23;;;3.30;82.00;;;0.86;96.45;97132.78;4897284;29;20130;-67
2022/01/15 09:53:36;;;;;;;39.97;14.02;;;3.30;81.80;;;0.87;96.29;97135.25;4896394;29;21206;-66
2022/01/15 09:56:05;;;;;;;32.53;15.07;;;3.30;81.50;;;0.88;96.62;97136.91;4881315;29;20032;-66
2022/01/15 09:58:31;;;;;;;31.33;14.85;;;3.30;81.50;;;0.91;95.56;97133.31;4910959;29;20040;-66
2022/01/15 10:00:57;;;;;;;43.80;14.88;;;3.30;81.30;;;0.93;96.00;97131.44;4913310;29;20052;-65
2022/01/15 10:03:23;;;;;;;30.85;15.35;;;3.30;81.30;;;0.96;95.75;97123.47;4906432;28;20712;-65
2022/01/15 10:05:50;;;;;;;32.33;15.90;;;3.40;81.50;;;0.93;95.39;97118.50;4910318;29;20029;-67
2022/01/15 10:08:19;;;;;;;28.77;14.77;;;3.40;81.30;;;0.99;95.62;97128.44;4894685;29;20535;-67
2022/01/15 10:10:50;;;;;;;26.30;14.57;;;3.40;81.10;;;0.95;95.63;97116.63;4913216;29;20044;-66
2022/01/15 10:13:28;;;;;;;43.25;23.60;;;3.40;81.20;;;0.99;95.98;97118.06;4897177;29;20043;-67
2022/01/15 10:15:59;;;;;;;36.70;19.08;;;3.50;81.60;;;1.06;95.58;97118.47;4896630;29;20111;-67
2022/01/15 10:18:32;;;;;;;49.88;15.82;;;3.60;81.30;;;1.04;95.68;97116.00;4925136;29;20773;-66
2022/01/15 10:21:14;;;;;;;33.05;15.50;;;3.40;81.10;;;1.04;95.97;97107.38;4895664;29;20039;-66
2022/01/15 10:23:54;;;;;;;29.08;15.43;;;3.50;81.10;;;1.04;95.56;97110.81;4900329;29;20040;-67
2022/01/15 10:26:24;;;;;;;27.63;14.90;;;3.50;81.20;;;1.09;95.43;97108.72;4896219;29;20040;-67
2022/01/15 10:29:05;;;;;;;27.67;14.88;;;3.50;81.20;;;1.13;96.10;97120.56;4912870;29;20040;-67
2022/01/15 10:31:37;;;;;;;27.60;15.10;;;3.60;81.10;;;1.18;95.09;97105.50;4911756;29;20115;-67